Time;durP1;ratioP1;P1;durP2;ratioP2;P2;SDS_P1;SDS_P2;PMS_P1;PMS_P2;Temp;Humidity;BMP_temperature;BMP_pressure;BME280_temperature;BME280_humidity;BME280_pressure;Samples;Min_cycle;Max_cycle;Signal;HPM_P1;HPM_P2
2022/03/06 00:00:24;;;;;;;2.67;1.35;;;;;;;0.54;68.55;100934.34;1729196;83;21208;-60
2022/03/06 00:02:54;;;;;;;2.27;1.22;;;;;;;0.55;68.55;100933.84;1728881;83;21198;-60
2022/03/06 00:05:23;;;;;;;3.25;1.32;;;;;;;0.56;68.51;100928.83;1728814;83;21167;-60
2022/03/06 00:07:56;;;;;;;1.75;1.22;;;;;;;0.56;68.45;100928.33;1763908;80;21115;-61
2022/03/06 00:10:27;;;;;;;1.75;1.00;;;;;;;0.54;67.93;100934.34;1782760;80;21131;-60
2022/03/06 00:12:57;;;;;;;2.45;1.27;;;;;;;0.51;67.79;100932.37;1722633;83;21124;-59
2022/03/06 00:15:27;;;;;;;3.75;1.30;;;;;;;0.52;67.75;100935.44;1722464;83;21128;-60
2022/03/06 00:17:57;;;;;;;1.77;1.20;;;;;;;0.51;67.66;100932.37;1722400;83;21238;-60
2022/03/06 00:20:27;;;;;;;3.25;1.42;;;;;;;0.52;67.56;100928.70;1722394;83;21607;-60
2022/03/06 00:22:57;;;;;;;1.90;1.10;;;;;;;0.52;67.39;100926.00;1722249;83;21175;-60
2022/03/06 00:25:26;;;;;;;2.98;1.30;;;;;;;0.53;67.57;100925.02;1722374;83;21661;-61
2022/03/06 00:27:55;;;;;;;3.60;1.30;;;;;;;0.53;67.35;100921.83;1722340;83;21222;-61
2022/03/06 00:30:24;;;;;;;4.65;1.32;;;;;;;0.55;67.09;100919.88;1722541;83;21128;-60
2022/03/06 00:32:54;;;;;;;2.33;1.32;;;;;;;0.57;67.04;100921.11;1722616;83;21235;-60
2022/03/06 00:35:24;;;;;;;2.27;1.37;;;;;;;0.59;66.83;100920.49;1722542;83;21195;-61
2022/03/06 00:37:54;;;;;;;2.33;1.50;;;;;;;0.59;66.50;100925.39;1760169;80;21531;-60
2022/03/06 00:40:23;;;;;;;4.25;1.70;;;;;;;0.59;66.30;100919.14;1776646;79;21112;-59
2022/03/06 00:42:53;;;;;;;3.20;1.50;;;;;;;0.60;66.03;100921.72;1774520;81;21119;-60
2022/03/06 00:45:22;;;;;;;3.35;1.37;;;;;;;0.59;66.26;100920.00;1774727;81;21107;-61
2022/03/06 00:47:52;;;;;;;4.58;1.42;;;;;;;0.57;66.46;100924.66;1774690;81;21143;-60
2022/03/06 00:50:23;;;;;;;2.87;1.50;;;;;;;0.59;66.37;100928.58;1774504;81;21138;-58
2022/03/06 00:52:52;;;;;;;2.65;1.40;;;;;;;0.58;66.31;100925.52;1774391;81;21621;-60
2022/03/06 00:55:22;;;;;;;2.95;1.60;;;;;;;0.58;66.21;100925.52;1774274;81;21179;-58
2022/03/06 00:57:51;;;;;;;3.85;1.60;;;;;;;0.57;66.03;100926.00;1774090;79;21124;-60
2022/03/06 01:00:20;;;;;;;3.45;1.90;;;;;;;0.56;66.08;100928.33;1774757;81;21155;-60
2022/03/06 01:02:50;;;;;;;3.20;1.70;;;;;;;0.57;66.28;100931.89;1774674;81;21103;-60
2022/03/06 01:05:20;;;;;;;3.65;1.80;;;;;;;0.58;66.35;100933.61;1774515;81;21132;-59
2022/03/06 01:07:50;;;;;;;2.35;1.67;;;;;;;0.57;66.19;100930.05;1774433;80;21088;-61
2022/03/06 01:10:19;;;;;;;3.02;1.72;;;;;;;0.58;66.03;100933.11;1774586;81;21128;-59
2022/03/06 01:12:51;;;;;;;3.12;1.60;;;;;;;0.56;66.03;100933.73;1774587;80;21084;-61
2022/03/06 01:15:20;;;;;;;2.67;1.40;;;;;;;0.55;65.98;100932.50;1774766;81;21112;-59
2022/03/06 01:17:49;;;;;;;2.65;1.32;;;;;;;0.53;65.95;100938.02;1774539;81;21116;-60
2022/03/06 01:20:19;;;;;;;3.55;1.60;;;;;;;0.53;65.97;100943.89;1774511;81;21092;-60
2022/03/06 01:22:50;;;;;;;2.55;1.55;;;;;;;0.52;65.78;100930.90;1774421;81;21551;-60
2022/03/06 01:25:19;;;;;;;2.85;1.47;;;;;;;0.51;65.63;100935.92;1774661;81;21571;-60
2022/03/06 01:27:49;;;;;;;2.72;1.65;;;;;;;0.51;65.61;100947.20;1774605;81;21609;-60
2022/03/06 01:30:21;;;;;;;3.85;1.70;;;;;;;0.50;65.59;100944.13;1774763;81;21151;-60
2022/03/06 01:32:50;;;;;;;3.08;1.70;;;;;;;0.50;65.60;100938.74;1774647;80;21150;-60
2022/03/06 01:35:19;;;;;;;2.80;1.37;;;;;;;0.52;65.38;100947.56;1774777;81;21139;-59
2022/03/06 01:37:51;;;;;;;2.83;1.60;;;;;;;0.52;65.02;100946.22;1774763;81;21194;-59
2022/03/06 01:40:20;;;;;;;3.62;1.92;;;;;;;0.50;64.92;100936.05;1782396;80;21102;-60
2022/03/06 01:42:49;;;;;;;2.95;1.60;;;;;;;0.50;64.50;100942.78;1788572;80;21142;-60
2022/03/06 01:45:20;;;;;;;2.10;1.42;;;;;;;0.48;64.23;100941.55;1788639;80;21111;-60
2022/03/06 01:47:53;;;;;;;3.17;1.70;;;;;;;0.45;64.16;100943.14;1788515;80;21144;-60
2022/03/06 01:50:32;;;;;;;3.02;1.70;;;;;;;0.43;63.89;100942.41;1788332;80;21590;-61
2022/03/06 01:53:05;;;;;;;3.30;1.65;;;;;;;0.42;63.86;100946.56;1788335;80;21107;-60
2022/03/06 01:55:34;;;;;;;3.20;1.70;;;;;;;0.41;63.93;100948.41;1788347;80;21508;-61
2022/03/06 01:58:07;;;;;;;2.87;1.67;;;;;;;0.40;64.48;100941.30;1788410;80;21158;-61
2022/03/06 02:00:45;;;;;;;2.80;1.37;;;;;;;0.39;64.69;100943.62;1788345;80;21190;-60
2022/03/06 02:03:16;;;;;;;3.75;1.75;;;;;;;0.36;64.66;100946.55;1788378;80;21182;-60
2022/03/06 02:05:46;;;;;;;1.72;1.40;;;;;;;0.35;64.64;100945.33;1788449;80;21107;-60
2022/03/06 02:08:15;;;;;;;3.33;1.77;;;;;;;0.31;64.54;100949.61;1788342;80;21134;-60
2022/03/06 02:10:45;;;;;;;1.80;1.27;;;;;;;0.34;64.38;100939.56;1788536;80;21154;-59
2022/03/06 02:13:15;;;;;;;3.98;1.42;;;;;;;0.37;64.14;100950.11;1788602;80;21115;-61
2022/03/06 02:15:44;;;;;;;2.75;1.32;;;;;;;0.40;63.87;100938.60;1788603;80;21131;-60
2022/03/06 02:18:14;;;;;;;3.80;1.42;;;;;;;0.40;63.66;100939.09;1788372;80;21127;-59
2022/03/06 02:20:47;;;;;;;3.50;1.57;;;;;;;0.39;63.54;100943.62;1788532;80;21174;-60
2022/03/06 02:23:16;;;;;;;2.95;1.50;;;;;;;0.38;63.51;100943.25;1788657;80;21425;-60
2022/03/06 02:25:46;;;;;;;2.60;1.50;;;;;;;0.37;63.49;100942.88;1788271;80;21558;-60
2022/03/06 02:28:15;;;;;;;4.75;1.55;;;;;;;0.35;63.35;100939.94;1788647;80;21130;-60
2022/03/06 02:30:44;;;;;;;3.02;1.50;;;;;;;0.34;63.13;100944.95;1788369;80;21147;-60
2022/03/06 02:33:14;;;;;;;2.85;1.65;;;;;;;0.33;62.85;100947.28;1788314;80;21107;-59
2022/03/06 02:35:44;;;;;;;3.52;1.50;;;;;;;0.32;62.71;100946.42;1788502;80;21091;-59
2022/03/06 02:38:14;;;;;;;2.27;1.40;;;;;;;0.33;62.64;100949.48;1788308;80;21107;-60
2022/03/06 02:40:44;;;;;;;2.62;1.40;;;;;;;0.34;62.57;100943.61;1780270;80;21155;-59
2022/03/06 02:43:15;;;;;;;2.53;1.40;;;;;;;0.31;62.47;100948.26;1774760;81;21151;-61
2022/03/06 02:45:45;;;;;;;3.33;1.37;;;;;;;0.31;62.27;100950.95;1774567;81;21186;-60
2022/03/06 02:48:15;;;;;;;3.55;1.70;;;;;;;0.27;62.16;100963.44;1774565;81;21131;-60
2022/03/06 02:50:46;;;;;;;2.27;1.40;;;;;;;0.21;62.71;100960.72;1774835;79;21143;-60
2022/03/06 02:53:18;;;;;;;2.60;1.27;;;;;;;0.19;63.03;100959.98;1774781;81;21547;-60
2022/03/06 02:55:48;;;;;;;2.80;1.35;;;;;;;0.21;63.14;100959.87;1764211;81;21613;-60
2022/03/06 02:58:19;;;;;;;3.45;1.52;;;;;;;0.19;63.43;100964.03;1774993;81;21112;-59
2022/03/06 03:00:48;;;;;;;2.42;1.42;;;;;;;0.16;63.25;100962.91;1774548;81;21139;-60
2022/03/06 03:03:17;;;;;;;2.45;1.50;;;;;;;0.15;63.31;100965.23;1774769;81;21108;-61
2022/03/06 03:05:47;;;;;;;1.98;1.17;;;;;;;0.17;63.32;100965.98;1774613;79;21132;-60
2022/03/06 03:08:17;;;;;;;2.67;1.60;;;;;;;0.20;63.52;100958.15;1774598;81;21120;-60
2022/03/06 03:10:46;;;;;;;4.23;1.53;;;;;;;0.22;63.23;100958.89;1774504;81;21111;-59
2022/03/06 03:13:16;;;;;;;3.22;1.50;;;;;;;0.23;63.20;100961.47;1774433;81;21613;-60
2022/03/06 03:15:45;;;;;;;2.08;1.20;;;;;;;0.23;63.32;100966.86;1774339;81;21117;-60
2022/03/06 03:18:17;;;;;;;2.85;1.30;;;;;;;0.20;63.23;100962.19;1774579;80;21127;-60
2022/03/06 03:20:50;;;;;;;2.35;1.32;;;;;;;0.17;63.11;100955.20;1774632;81;21123;-60
2022/03/06 03:23:19;;;;;;;2.67;1.57;;;;;;;0.17;63.12;100956.55;1774154;81;21566;-60
2022/03/06 03:25:49;;;;;;;2.45;1.47;;;;;;;0.17;63.22;100962.42;1774655;80;21111;-60
2022/03/06 03:28:18;;;;;;;2.05;1.22;;;;;;;0.18;63.13;100958.27;1774503;81;21151;-61
2022/03/06 03:30:47;;;;;;;2.47;1.60;;;;;;;0.18;63.05;100960.96;1774411;81;21123;-61
2022/03/06 03:33:18;;;;;;;1.75;1.10;;;;;;;0.17;62.83;100966.47;1774537;79;21190;-60
2022/03/06 03:35:47;;;;;;;2.17;1.12;;;;;;;0.19;62.56;100968.07;1774518;81;21147;-60
2022/03/06 03:38:16;;;;;;;2.85;1.27;;;;;;;0.19;62.18;100967.20;1774722;81;21115;-60
2022/03/06 03:40:47;;;;;;;2.85;1.67;;;;;;;0.17;62.13;100965.98;1774219;80;21633;-60
2022/03/06 03:43:16;;;;;;;2.30;1.30;;;;;;;0.16;61.94;100966.95;1774378;81;21151;-60
2022/03/06 03:45:47;;;;;;;2.75;1.20;;;;;;;0.14;61.97;100963.52;1774349;81;21159;-60
2022/03/06 03:48:18;;;;;;;2.15;1.25;;;;;;;0.11;62.37;100965.59;1774582;80;21135;-61
2022/03/06 03:50:48;;;;;;;2.92;1.00;;;;;;;0.09;61.99;100962.16;1774315;81;21084;-61
2022/03/06 03:53:20;;;;;;;2.08;1.02;;;;;;;0.07;61.87;100958.72;1774564;81;21151;-60
2022/03/06 03:55:50;;;;;;;2.47;1.20;;;;;;;0.09;61.75;100963.02;1774286;81;21107;-60
2022/03/06 03:58:20;;;;;;;2.45;1.17;;;;;;;0.05;61.54;100964.22;1774328;81;21111;-61
2022/03/06 04:00:54;;;;;;;1.90;1.20;;;;;;;0.00;61.65;100963.71;1774762;81;21139;-61
2022/03/06 04:03:22;;;;;;;3.37;1.17;;;;;;;-0.05;62.08;100962.68;1774443;80;21567;-60
2022/03/06 04:05:51;;;;;;;2.95;1.35;;;;;;;-0.06;62.13;100969.05;1774317;80;21167;-60
2022/03/06 04:08:20;;;;;;;2.33;1.40;;;;;;;-0.03;62.07;100971.99;1774471;81;21531;-60
2022/03/06 04:10:49;;;;;;;2.12;1.30;;;;;;;0.01;62.21;100974.86;1774462;79;21104;-60
2022/03/06 04:13:19;;;;;;;2.98;1.20;;;;;;;0.00;61.84;100973.14;1774482;81;21118;-61
2022/03/06 04:15:49;;;;;;;2.00;1.15;;;;;;;-0.01;61.60;100972.25;1730877;83;21099;-61
2022/03/06 04:18:19;;;;;;;1.82;1.10;;;;;;;0.01;61.56;100974.86;1654852;86;21194;-60
2022/03/06 04:20:48;;;;;;;1.80;1.00;;;;;;;0.02;61.61;100982.45;1731167;83;21131;-60
2022/03/06 04:23:20;;;;;;;2.98;1.05;;;;;;;0.02;61.62;100981.97;1654495;86;21327;-60
2022/03/06 04:25:49;;;;;;;1.60;0.90;;;;;;;0.06;61.19;100983.94;1730885;83;21531;-60
2022/03/06 04:28:19;;;;;;;2.40;1.12;;;;;;;0.03;60.76;100990.91;1730983;83;21135;-61
2022/03/06 04:30:48;;;;;;;2.58;1.00;;;;;;;-0.01;60.83;100988.41;1654761;86;21187;-60
2022/03/06 04:33:17;;;;;;;2.20;1.00;;;;;;;-0.01;61.06;100984.86;1730978;83;21163;-60
2022/03/06 04:35:47;;;;;;;2.10;0.90;;;;;;;-0.01;61.08;100987.55;1730999;83;21123;-60
2022/03/06 04:38:17;;;;;;;1.77;1.00;;;;;;;-0.01;61.04;100991.59;1730985;83;21132;-60
2022/03/06 04:40:47;;;;;;;2.83;1.02;;;;;;;0.02;60.97;100991.88;1688794;83;21142;-60
2022/03/06 04:43:18;;;;;;;2.33;1.20;;;;;;;0.02;60.98;100998.12;1774685;81;21559;-59
2022/03/06 04:45:48;;;;;;;3.60;1.40;;;;;;;0.03;60.94;100994.46;1774518;79;21544;-60
2022/03/06 04:48:17;;;;;;;2.05;1.20;;;;;;;0.02;60.79;100997.27;1774508;81;21107;-60
2022/03/06 04:50:47;;;;;;;2.30;1.10;;;;;;;0.02;60.80;101006.21;1774604;81;21076;-59
2022/03/06 04:53:16;;;;;;;3.65;1.10;;;;;;;0.04;60.77;100998.02;1774541;81;21116;-60
2022/03/06 04:55:46;;;;;;;2.22;1.10;;;;;;;0.06;60.69;100994.23;1774638;79;21159;-60
2022/03/06 04:58:16;;;;;;;1.92;1.17;;;;;;;0.08;60.53;100997.66;1774714;81;21586;-59
2022/03/06 05:00:45;;;;;;;1.75;1.20;;;;;;;0.11;60.36;100998.78;1774864;81;21223;-60
2022/03/06 05:03:16;;;;;;;2.33;1.20;;;;;;;0.12;60.44;101000.50;1774544;80;21092;-60
2022/03/06 05:05:46;;;;;;;4.17;1.05;;;;;;;0.11;60.38;100994.73;1774770;80;21115;-61
2022/03/06 05:08:15;;;;;;;1.52;1.15;;;;;;;0.11;60.15;101007.34;1774785;81;21210;-61
2022/03/06 05:10:44;;;;;;;2.12;0.90;;;;;;;0.08;60.21;101005.75;1774775;81;21564;-61
2022/03/06 05:13:14;;;;;;;2.00;1.00;;;;;;;0.06;60.19;101010.39;1774650;81;21131;-60
2022/03/06 05:15:45;;;;;;;2.58;0.98;;;;;;;0.05;59.78;101007.81;1774590;81;21163;-61
2022/03/06 05:18:13;;;;;;;1.60;1.17;;;;;;;0.02;59.45;101008.05;1774603;81;21744;-61
2022/03/06 05:20:44;;;;;;;3.12;1.02;;;;;;;0.03;59.56;101004.38;1774881;81;21147;-61
2022/03/06 05:23:13;;;;;;;1.60;0.93;;;;;;;0.02;59.45;101006.21;1774574;81;21166;-61
2022/03/06 05:25:45;;;;;;;3.45;1.20;;;;;;;0.04;59.05;100996.66;1774605;81;21544;-61
2022/03/06 05:28:15;;;;;;;1.70;1.02;;;;;;;0.04;58.88;101002.91;1774919;81;21115;-59
2022/03/06 05:30:44;;;;;;;1.60;0.98;;;;;;;0.08;58.67;100997.66;1774630;81;21591;-61
2022/03/06 05:33:13;;;;;;;2.58;0.98;;;;;;;0.10;58.44;101004.28;1774886;80;21108;-60
2022/03/06 05:35:44;;;;;;;1.40;1.00;;;;;;;0.13;58.35;101003.56;1774796;81;21120;-60
2022/03/06 05:38:13;;;;;;;2.12;0.95;;;;;;;0.15;58.01;101003.45;1774555;81;21119;-60
2022/03/06 05:40:43;;;;;;;1.70;0.90;;;;;;;0.14;57.53;101002.59;1777005;80;21122;-62
2022/03/06 05:43:12;;;;;;;2.35;1.00;;;;;;;0.15;57.33;101002.96;1788532;80;21115;-60
2022/03/06 05:45:42;;;;;;;1.00;0.90;;;;;;;0.17;57.18;101006.39;1788582;80;21210;-61
2022/03/06 05:48:12;;;;;;;5.65;1.02;;;;;;;0.21;57.33;101010.58;1788579;79;21083;-60
2022/03/06 05:50:43;;;;;;;3.00;0.93;;;;;;;0.23;57.39;101003.72;1788449;80;21566;-60
2022/03/06 05:53:12;;;;;;;2.65;0.78;;;;;;;0.26;57.70;101012.44;1788354;80;21119;-61
2022/03/06 05:55:42;;;;;;;3.50;1.00;;;;;;;0.31;57.60;101006.20;1788596;80;21150;-60
2022/03/06 05:58:11;;;;;;;2.22;0.98;;;;;;;0.31;57.50;101014.29;1788264;80;21095;-60
2022/03/06 06:00:41;;;;;;;1.30;0.90;;;;;;;0.33;57.74;101006.58;1788380;80;21151;-61
2022/03/06 06:03:10;;;;;;;3.58;1.10;;;;;;;0.33;58.14;101002.05;1788458;80;21123;-59
2022/03/06 06:05:39;;;;;;;1.62;0.90;;;;;;;0.35;58.36;101004.62;1788477;80;21107;-60
2022/03/06 06:08:08;;;;;;;1.25;0.90;;;;;;;0.38;58.39;101004.39;1788512;80;21123;-60
2022/03/06 06:10:38;;;;;;;3.87;1.10;;;;;;;0.41;57.91;101008.20;1788512;80;21119;-61
2022/03/06 06:13:09;;;;;;;3.30;0.95;;;;;;;0.41;57.84;101014.94;1788513;80;21636;-60
2022/03/06 06:15:37;;;;;;;2.95;1.00;;;;;;;0.41;57.74;101014.94;1788261;79;21583;-60
2022/03/06 06:18:07;;;;;;;2.35;1.02;;;;;;;0.42;57.61;101009.91;1788226;80;21214;-60
2022/03/06 06:20:37;;;;;;;4.45;1.40;;;;;;;0.43;57.32;101011.63;1788405;80;21123;-60
2022/03/06 06:23:06;;;;;;;1.65;1.05;;;;;;;0.42;57.34;101013.95;1788335;80;21083;-60
2022/03/06 06:25:36;;;;;;;2.62;1.17;;;;;;;0.42;57.11;101012.61;1788496;80;21206;-61
2022/03/06 06:28:07;;;;;;;2.70;1.02;;;;;;;0.38;56.85;101013.82;1788331;80;21549;-60
2022/03/06 06:30:36;;;;;;;2.75;1.35;;;;;;;0.40;57.39;101011.38;1788172;80;21147;-60
2022/03/06 06:33:06;;;;;;;2.95;1.20;;;;;;;0.42;57.26;101009.91;1788603;79;21146;-61
2022/03/06 06:35:36;;;;;;;3.33;1.35;;;;;;;0.49;57.48;101023.30;1788367;80;21173;-61
2022/03/06 06:38:07;;;;;;;4.60;1.40;;;;;;;0.54;57.54;101020.61;1788314;79;21158;-60
2022/03/06 06:40:36;;;;;;;6.70;1.72;;;;;;;0.56;57.63;101020.50;1788073;80;21111;-61
2022/03/06 06:43:07;;;;;;;6.85;2.37;;;;;;;0.57;57.84;101021.72;1774399;81;21571;-60
2022/03/06 06:45:36;;;;;;;4.20;1.50;;;;;;;0.59;57.90;101024.30;1774363;81;21123;-61
2022/03/06 06:48:06;;;;;;;4.15;2.02;;;;;;;0.60;58.12;101016.58;1774587;79;21155;-60
2022/03/06 06:50:35;;;;;;;7.47;2.33;;;;;;;0.66;58.14;101023.37;1774426;79;21127;-61
2022/03/06 06:53:06;;;;;;;5.37;1.57;;;;;;;0.67;58.08;101021.91;1774715;81;21198;-61
2022/03/06 06:55:35;;;;;;;4.22;1.98;;;;;;;0.64;58.27;101031.55;1774484;81;21335;-61
2022/03/06 06:58:04;;;;;;;5.65;1.90;;;;;;;0.61;58.41;101027.73;1774512;81;21170;-60
2022/03/06 07:00:34;;;;;;;4.22;1.92;;;;;;;0.66;58.52;101025.58;1774270;81;21563;-60
2022/03/06 07:03:03;;;;;;;4.92;2.02;;;;;;;0.68;58.63;101032.20;1774332;81;21143;-60
2022/03/06 07:05:33;;;;;;;4.20;1.92;;;;;;;0.71;58.80;101028.77;1774622;81;21135;-60
2022/03/06 07:08:03;;;;;;;4.83;2.65;;;;;;;0.77;58.85;101025.60;1774450;81;21111;-61
2022/03/06 07:10:33;;;;;;;7.50;2.08;;;;;;;0.80;58.61;101024.02;1774741;79;21159;-61
2022/03/06 07:13:03;;;;;;;12.13;2.12;;;;;;;0.77;58.70;101026.95;1774583;81;21115;-61
2022/03/06 07:15:33;;;;;;;8.73;2.22;;;;;;;0.77;58.87;101024.25;1774794;81;21150;-61
2022/03/06 07:18:03;;;;;;;5.12;2.22;;;;;;;0.73;59.07;101026.82;1774497;81;21536;-61
2022/03/06 07:20:32;;;;;;;4.65;1.95;;;;;;;0.74;59.18;101027.68;1774712;81;21155;-61
2022/03/06 07:23:02;;;;;;;3.30;1.90;;;;;;;0.80;59.24;101025.36;1774315;79;21601;-61
2022/03/06 07:25:32;;;;;;;7.00;2.10;;;;;;;0.85;59.33;101025.00;1774791;81;21155;-61
2022/03/06 07:28:01;;;;;;;3.80;1.90;;;;;;;0.85;59.45;101020.47;1774483;79;21139;-60
2022/03/06 07:30:29;;;;;;;4.37;2.10;;;;;;;0.89;59.41;101019.25;1774438;81;21547;-60
2022/03/06 07:33:00;;;;;;;3.08;1.77;;;;;;;0.95;59.36;101022.81;1774485;81;21120;-62
2022/03/06 07:35:31;;;;;;;6.60;2.05;;;;;;;1.00;59.41;101016.19;1774535;81;21116;-60
2022/03/06 07:38:00;;;;;;;3.80;2.10;;;;;;;0.94;59.90;101017.05;1774613;81;21652;-60
2022/03/06 07:40:29;;;;;;;4.60;2.27;;;;;;;0.97;59.98;101021.83;1774540;81;21159;-61
2022/03/06 07:43:00;;;;;;;4.17;1.92;;;;;;;1.02;59.68;101022.33;1786041;80;21155;-61
2022/03/06 07:45:29;;;;;;;5.55;2.00;;;;;;;1.10;59.58;101022.09;1788182;80;21531;-61
2022/03/06 07:47:59;;;;;;;3.58;2.05;;;;;;;1.16;59.35;101014.85;1788467;80;21094;-60
2022/03/06 07:50:29;;;;;;;3.72;1.80;;;;;;;1.20;59.26;101021.72;1788209;79;21107;-61
2022/03/06 07:53:00;;;;;;;3.70;1.92;;;;;;;1.20;59.23;101018.16;1788286;80;21535;-60
2022/03/06 07:55:29;;;;;;;5.08;2.05;;;;;;;1.20;59.13;101020.86;1788311;79;21583;-60
2022/03/06 07:57:59;;;;;;;6.45;2.37;;;;;;;1.20;59.26;101013.63;1788515;79;21071;-61
2022/03/06 08:00:28;;;;;;;4.28;2.22;;;;;;;1.26;58.98;101014.97;1788101;80;21539;-61
2022/03/06 08:02:58;;;;;;;4.97;2.08;;;;;;;1.27;58.81;101009.94;1788412;80;21146;-61
2022/03/06 08:05:27;;;;;;;5.22;2.22;;;;;;;1.29;58.40;101014.73;1788278;80;21686;-62
2022/03/06 08:07:57;;;;;;;7.03;2.33;;;;;;;1.32;58.07;101009.11;1788230;80;21155;-61
2022/03/06 08:10:27;;;;;;;3.83;2.00;;;;;;;1.31;57.88;101007.39;1788573;80;21115;-60
2022/03/06 08:12:59;;;;;;;5.42;2.10;;;;;;;1.29;57.72;101001.23;1736387;82;21107;-61
2022/03/06 08:15:30;;;;;;;5.55;2.55;;;;;;;1.32;57.85;101004.20;1661533;86;21131;-60
2022/03/06 08:17:59;;;;;;;3.85;2.27;;;;;;;1.39;57.08;100990.58;1736392;82;21592;-61
2022/03/06 08:20:30;;;;;;;4.15;2.45;;;;;;;1.45;56.99;100998.18;1583227;90;21168;-61
2022/03/06 08:23:01;;;;;;;9.13;2.42;;;;;;;1.55;56.95;100997.30;1651637;87;21132;-60
2022/03/06 08:25:30;;;;;;;5.55;2.40;;;;;;;1.69;56.78;100989.91;1651351;86;21191;-60
2022/03/06 08:28:00;;;;;;;11.53;3.02;;;;;;;1.79;56.05;100982.77;1651514;87;21212;-61
2022/03/06 08:30:32;;;;;;;5.50;2.80;;;;;;;1.83;55.68;100981.03;1665511;84;21133;-60
2022/03/06 08:33:02;;;;;;;3.80;2.37;;;;;;;1.87;55.61;100985.20;1707094;84;21148;-60
2022/03/06 08:35:32;;;;;;;6.70;3.08;;;;;;;1.87;55.17;100982.48;1707118;84;21678;-61
2022/03/06 08:38:02;;;;;;;5.80;3.37;;;;;;;1.83;55.15;100977.47;1726374;80;21115;-60
2022/03/06 08:40:32;;;;;;;6.62;3.10;;;;;;;1.84;55.34;100978.69;1788411;80;21139;-61
2022/03/06 08:43:01;;;;;;;9.73;3.55;;;;;;;1.86;55.36;100986.67;1788346;80;21201;-61
2022/03/06 08:45:30;;;;;;;7.15;3.10;;;;;;;1.85;55.42;100987.66;1788239;80;21162;-61
2022/03/06 08:48:00;;;;;;;5.40;2.70;;;;;;;1.90;55.48;100984.08;1788297;80;21159;-61
2022/03/06 08:50:29;;;;;;;5.12;3.00;;;;;;;1.90;54.91;100978.67;1788546;80;21119;-61
2022/03/06 08:52:58;;;;;;;8.40;3.10;;;;;;;1.88;55.12;100982.86;1788225;80;21154;-60
2022/03/06 08:55:29;;;;;;;6.95;3.10;;;;;;;1.89;55.27;100985.92;1788284;80;21563;-60
2022/03/06 08:57:58;;;;;;;5.65;3.22;;;;;;;1.92;55.57;100979.41;1788389;80;21190;-60
2022/03/06 09:00:27;;;;;;;11.80;3.90;;;;;;;1.91;55.79;100981.75;1788521;80;21083;-60
2022/03/06 09:02:58;;;;;;;8.70;3.65;;;;;;;1.85;56.36;100981.77;1788246;80;21592;-60
2022/03/06 09:05:28;;;;;;;9.73;3.30;;;;;;;1.81;57.03;100987.55;1788261;80;21142;-60
2022/03/06 09:07:57;;;;;;;9.38;3.33;;;;;;;1.78;57.42;100979.20;1788245;80;21111;-61
2022/03/06 09:10:27;;;;;;;8.03;3.40;;;;;;;1.74;57.83;100981.80;1788484;80;21084;-60
2022/03/06 09:13:00;;;;;;;8.45;3.50;;;;;;;1.76;58.26;100980.31;1788217;80;21189;-59
2022/03/06 09:15:28;;;;;;;5.78;3.08;;;;;;;1.76;58.38;100981.67;1788182;79;21166;-61
2022/03/06 09:18:00;;;;;;;6.78;3.15;;;;;;;1.73;58.21;100981.92;1788164;79;21194;-60
2022/03/06 09:20:29;;;;;;;8.53;4.10;;;;;;;1.66;58.22;100980.71;1788130;80;21555;-61
2022/03/06 09:22:58;;;;;;;7.12;3.75;;;;;;;1.56;58.32;100977.42;1788210;80;21083;-61
2022/03/06 09:25:32;;;;;;;6.85;3.92;;;;;;;1.53;58.65;100984.42;1788135;80;21150;-61
2022/03/06 09:27:58;;;;;;;10.20;4.28;;;;;;;1.54;58.97;100983.93;1787917;80;21838;-61
2022/03/06 09:30:27;;;;;;;7.55;3.47;;;;;;;1.56;59.13;100977.42;1787941;79;21174;-61
2022/03/06 09:32:58;;;;;;;8.63;4.05;;;;;;;1.59;59.16;100985.27;1788274;80;21111;-61
2022/03/06 09:35:28;;;;;;;9.05;4.37;;;;;;;1.56;59.11;100974.72;1788023;80;21115;-61
2022/03/06 09:37:57;;;;;;;10.75;4.47;;;;;;;1.52;59.02;100978.66;1787998;80;21185;-60
2022/03/06 09:40:27;;;;;;;9.70;4.78;;;;;;;1.52;58.93;100980.50;1788118;80;21147;-60
2022/03/06 09:42:58;;;;;;;8.90;4.87;;;;;;;1.52;58.84;100980.00;1732874;82;21167;-60
2022/03/06 09:45:29;;;;;;;16.02;4.97;;;;;;;1.55;58.88;100971.65;1730820;83;21123;-60
2022/03/06 09:47:59;;;;;;;12.10;4.92;;;;;;;1.57;58.73;100975.08;1731022;83;21583;-60
2022/03/06 09:50:29;;;;;;;10.20;5.33;;;;;;;1.61;58.76;100971.64;1731067;83;21260;-63
2022/03/06 09:53:00;;;;;;;13.85;5.28;;;;;;;1.65;58.06;100970.89;1730986;83;21175;-60
2022/03/06 09:55:29;;;;;;;10.98;4.70;;;;;;;1.63;57.85;100976.91;1730919;83;21552;-61
2022/03/06 09:57:58;;;;;;;9.98;4.90;;;;;;;1.65;57.73;100964.14;1730704;83;21151;-62
2022/03/06 10:00:27;;;;;;;7.65;4.50;;;;;;;1.73;57.65;100969.27;1742833;80;21119;-62
2022/03/06 10:03:00;;;;;;;11.63;4.80;;;;;;;1.82;57.34;100961.75;1784897;80;21150;-61
2022/03/06 10:05:37;;;;;;;9.78;4.60;;;;;;;1.90;56.96;100962.46;1784936;80;21151;-61
2022/03/06 10:08:16;;;;;;;10.43;5.03;;;;;;;2.02;56.29;100958.77;1785167;80;21162;-61
2022/03/06 10:10:47;;;;;;;11.60;4.80;;;;;;;2.12;55.38;100958.35;1781856;80;21111;-61
2022/03/06 10:13:31;;;;;;;7.62;4.42;;;;;;;2.17;55.37;100952.55;1785403;79;21111;-61
2022/03/06 10:16:11;;;;;;;8.73;4.58;;;;;;;2.22;55.23;100947.12;1784947;79;21162;-61
2022/03/06 10:18:47;;;;;;;14.13;5.30;;;;;;;2.23;54.81;100940.72;1785152;80;21111;-60
2022/03/06 10:21:23;;;;;;;;;;;;;;;2.27;54.83;100939.11;1787786;79;21548;-62
2022/03/06 10:24:01;;;;;;;12.80;6.03;;;;;;;2.29;54.23;100939.34;1785105;80;20153;-61
2022/03/06 10:26:35;;;;;;;22.70;6.40;;;;;;;2.22;53.74;100939.50;1784998;80;21142;-60
2022/03/06 10:29:11;;;;;;;23.25;6.15;;;;;;;2.20;53.84;100933.37;1785111;80;21555;-61
2022/03/06 10:31:55;;;;;;;15.15;6.28;;;;;;;2.23;53.56;100931.75;1784940;80;22148;-60
2022/03/06 10:34:40;;;;;;;13.22;5.53;;;;;;;2.22;52.97;100929.55;1783141;80;21109;-60
2022/03/06 10:37:14;;;;;;;10.38;5.53;;;;;;;2.23;53.06;100922.30;1784977;80;21170;-62
2022/03/06 10:39:45;;;;;;;11.15;5.90;;;;;;;2.22;52.97;100925.48;1784955;80;21083;-61
2022/03/06 10:42:21;;;;;;;11.57;4.97;;;;;;;2.22;52.71;100921.93;1785550;80;21158;-61
2022/03/06 10:44:54;;;;;;;9.23;5.10;;;;;;;2.22;51.67;100925.98;1788366;80;21610;-61
2022/03/06 10:47:23;;;;;;;9.20;4.87;;;;;;;2.19;51.59;100920.84;1788538;80;21075;-61
2022/03/06 10:50:01;;;;;;;10.15;4.20;;;;;;;2.22;51.33;100924.14;1788196;79;21206;-62
2022/03/06 10:52:33;;;;;;;6.47;3.05;;;;;;;2.27;50.67;100921.53;1788611;80;21123;-61
2022/03/06 10:55:03;;;;;;;8.88;3.27;;;;;;;2.29;48.08;100914.15;1769696;80;21163;-61
2022/03/06 10:57:32;;;;;;;6.53;3.45;;;;;;;2.26;47.72;100912.56;1788712;80;21107;-61
2022/03/06 11:00:05;;;;;;;5.97;2.80;;;;;;;2.26;48.10;100915.27;1771327;80;21574;-62
2022/03/06 11:02:36;;;;;;;6.37;3.10;;;;;;;2.29;47.55;100904.19;1788257;80;21146;-60
2022/03/06 11:05:08;;;;;;;5.28;2.70;;;;;;;2.33;47.71;100902.08;1788488;80;21107;-60
2022/03/06 11:07:38;;;;;;;7.30;3.80;;;;;;;2.36;47.10;100899.11;1771296;80;21135;-62
2022/03/06 11:10:09;;;;;;;28.45;4.60;;;;;;;2.32;47.03;100903.07;1771134;80;21170;-61
2022/03/06 11:12:39;;;;;;;7.80;3.92;;;;;;;2.31;47.40;100903.56;1788238;80;21123;-61
2022/03/06 11:15:10;;;;;;;7.67;3.83;;;;;;;2.33;47.06;100907.48;1770985;80;21115;-62
2022/03/06 11:17:46;;;;;;;11.10;4.10;;;;;;;2.29;47.39;100909.59;1788301;80;21551;-62
2022/03/06 11:20:29;;;;;;;8.88;4.20;;;;;;;2.27;47.48;100902.61;1788530;80;21143;-60
2022/03/06 11:23:23;;;;;;;9.38;4.40;;;;;;;2.21;46.89;100902.64;1788745;80;21091;-61
2022/03/06 11:26:18;;;;;;;19.32;7.17;;;;;;;2.11;47.31;100894.96;1788266;80;21253;-62
2022/03/06 11:29:19;;;;;;;23.83;8.28;;;;;;;2.09;49.40;100897.80;1788046;80;21099;-61
2022/03/06 11:31:53;;;;;;;19.20;7.12;;;;;;;2.11;50.57;100896.31;1788231;80;21527;-61
2022/03/06 11:34:30;;;;;;;17.35;7.90;;;;;;;2.11;51.59;100897.17;1788361;80;21130;-60
2022/03/06 11:37:15;;;;;;;13.77;5.57;;;;;;;2.15;51.95;100897.27;1788501;80;21127;-61
2022/03/06 11:39:49;;;;;;;16.30;7.75;;;;;;;2.14;51.51;100894.20;1773644;80;21174;-60
2022/03/06 11:42:55;;;;;;;14.03;6.47;;;;;;;2.09;51.59;100899.14;1787335;80;21150;-60
2022/03/06 11:45:47;;;;;;;16.62;7.78;;;;;;;2.07;50.64;100890.31;1774541;81;21123;-62
2022/03/06 11:48:40;;;;;;;17.55;7.37;;;;;;;2.04;50.83;100889.22;1774496;81;21640;-62